Jacksonville International Airport
KJAX : now visible

Airfield :











YOU CAN JOIN US ON...

 
LOGIN :

Register | Disclaimer

   EN    FR    IT 

 









Legend :    VFR   Marginal VFR   IFR   Intensive IFR   Very Intensive IFR
Visi :
Ceiling :
>= 8 km
>= 3000ft
5 to 8 km
1000 to 3000 ft
1500m to 5 km
500 to 1000 ft
800 to 1500m
200 to 500 ft
< 800m
< 200 ft
Symbols :   Thunderstorms  Fog  Heavy snow  Heavy precipitations  Wind > 20 kt






- Airport Elevation : 30 ft
- IATA code : JAX


KJAX - Jacksonville International

CURRENT METAR :
  • 021656Z 21005KT 10SM SCT035 SCT048 SCT170 BKN250 31/23 A3005 RMK AO2 SLP175 T03060233 $

EXPIRED METARs :
  • 021556Z VRB03KT 10SM FEW025 SCT170 BKN250 30/24 A3006 RMK AO2 SLP180 T03000239 $
  • 021456Z VRB06KT 10SM FEW020 BKN170 BKN250 28/24 A3007 RMK AO2 SLP181 T02830239 51005 $
  • 020256Z 24003KT 10SM SCT120 BKN250 24/23 A3005 RMK AO2 SLP177 60001 T02390233 53000 $

TAF KJAX
Valid from the 02 at 18:00 until the 03 at 18:00 UTC


021720Z 0218/0318 26008KT P6SM SCT030 BKN250
FM021900 24008KT P6SM VCTS BKN030CB BKN250
TEMPO 0221/0301 VRB15G25KT 3SM TSRA BKN025CB OVC050
FM030300 VRB04KT P6SM SCT060 BKN250
FM031400 26006KT P6SM SCT030 SCT250
KZJX FIR / North America



MET'MAP, your aeronautical weather chart ! - Copyright ORBIFLY December 2007 - Disclaimer

ORBIFLY MET'MAP TEAM :

Programming & Development : Alexandra Zaïnal
Original concept : Baudouin d'Aumeries
Technical & hardware support : Manuel Goepfert
Assistance : Marc-Olivier Méhu




SOURCES & CREDITS :

   NOAA       Earth
Advisory